createdAt,value
2023-05-13T00:02:20.104Z,3.43
2023-05-13T00:04:47.028Z,3.63
2023-05-13T00:07:13.974Z,3.50
2023-05-13T00:09:40.935Z,2.93
2023-05-13T00:12:08.055Z,3.20
2023-05-13T00:14:34.998Z,3.27
2023-05-13T00:17:04.823Z,3.30
2023-05-13T00:19:32.003Z,3.20
2023-05-13T00:21:59.099Z,3.90
2023-05-13T00:24:26.110Z,2.93
2023-05-13T00:26:53.830Z,3.43
2023-05-13T00:29:20.824Z,3.67
2023-05-13T00:31:48.001Z,3.30
2023-05-13T00:34:17.052Z,4.10
2023-05-13T00:36:45.183Z,3.17
2023-05-13T00:39:12.140Z,3.40
2023-05-13T00:41:39.183Z,3.30
2023-05-13T00:44:06.313Z,2.97
2023-05-13T00:46:34.109Z,3.47
2023-05-13T00:49:02.272Z,3.03
2023-05-13T00:51:29.318Z,3.43
2023-05-13T00:53:59.314Z,3.60
2023-05-13T00:56:27.253Z,2.80
2023-05-13T00:58:54.243Z,3.20
2023-05-13T01:01:30.942Z,3.60
2023-05-13T01:04:00.828Z,4.00
2023-05-13T01:06:41.836Z,3.60
2023-05-13T01:09:21.579Z,4.43
2023-05-13T01:11:53.318Z,4.67
2023-05-13T01:14:27.740Z,4.23
2023-05-13T01:17:07.275Z,4.43
2023-05-13T01:19:57.102Z,4.03
2023-05-13T01:22:24.332Z,3.60
2023-05-13T01:24:51.385Z,3.80
2023-05-13T01:27:19.882Z,4.10
2023-05-13T01:29:49.482Z,3.97
2023-05-13T01:32:23.006Z,4.00
2023-05-13T01:34:52.468Z,4.30
2023-05-13T01:37:21.957Z,4.33
2023-05-13T01:39:50.405Z,4.57
2023-05-13T01:42:18.107Z,4.60
2023-05-13T01:44:45.194Z,4.40
2023-05-13T01:47:12.338Z,4.47
2023-05-13T01:49:39.238Z,4.43
2023-05-13T01:52:07.300Z,5.17
2023-05-13T01:54:34.450Z,5.43
2023-05-13T01:57:06.437Z,5.57
2023-05-13T01:59:33.767Z,5.43
2023-05-13T02:02:00.909Z,5.70
2023-05-13T02:04:27.846Z,6.67
2023-05-13T02:06:54.906Z,5.70
2023-05-13T02:09:22.217Z,5.30
2023-05-13T02:11:49.222Z,5.70
2023-05-13T02:14:16.681Z,5.47
2023-05-13T02:16:43.725Z,5.53
2023-05-13T02:19:10.901Z,6.00
2023-05-13T02:21:37.982Z,5.77
2023-05-13T02:24:07.851Z,5.53
2023-05-13T02:26:34.796Z,9.23
2023-05-13T02:29:01.905Z,7.07
2023-05-13T02:31:29.733Z,6.60
2023-05-13T02:33:56.783Z,7.03
2023-05-13T02:36:25.727Z,6.73
2023-05-13T02:38:53.174Z,6.63
2023-05-13T02:41:20.125Z,6.53
2023-05-13T02:43:48.088Z,6.37
2023-05-13T02:46:16.170Z,6.47
2023-05-13T02:48:44.691Z,6.30
2023-05-13T02:51:11.740Z,6.13
2023-05-13T02:53:39.396Z,5.80
2023-05-13T02:56:08.517Z,6.97
2023-05-13T02:58:36.790Z,6.57
2023-05-13T03:01:03.947Z,7.53
2023-05-13T03:03:31.169Z,7.33
2023-05-13T03:05:58.677Z,5.97
2023-05-13T03:08:25.690Z,5.97
2023-05-13T03:10:54.256Z,5.83
2023-05-13T03:13:21.317Z,6.00
2023-05-13T03:15:48.510Z,4.93
2023-05-13T03:18:15.581Z,5.10
2023-05-13T03:20:43.176Z,4.93
2023-05-13T03:23:10.081Z,5.00
2023-05-13T03:25:36.996Z,4.77
2023-05-13T03:28:04.174Z,4.13
2023-05-13T03:30:35.575Z,4.53
2023-05-13T03:33:06.935Z,4.40
2023-05-13T03:35:33.838Z,4.67
2023-05-13T03:38:00.954Z,4.27
2023-05-13T03:40:28.233Z,4.87
2023-05-13T03:42:56.497Z,4.40
2023-05-13T03:45:24.537Z,4.13
2023-05-13T03:47:54.787Z,4.13
2023-05-13T03:50:24.117Z,3.90
2023-05-13T03:52:52.559Z,3.90
2023-05-13T03:55:21.044Z,4.00
2023-05-13T03:57:49.473Z,3.67
2023-05-13T04:00:18.965Z,3.63
2023-05-13T04:02:48.407Z,3.47
2023-05-13T04:05:15.753Z,4.03
2023-05-13T04:07:42.742Z,4.27
2023-05-13T04:10:12.317Z,4.10
2023-05-13T04:12:40.865Z,4.50
2023-05-13T04:15:08.350Z,4.10
2023-05-13T04:17:35.387Z,4.27
2023-05-13T04:20:02.406Z,4.47
2023-05-13T04:22:34.987Z,4.80
2023-05-13T04:25:01.998Z,4.87
2023-05-13T04:27:31.689Z,5.50
2023-05-13T04:30:11.187Z,8.07
2023-05-13T04:32:40.150Z,5.53
2023-05-13T04:35:08.449Z,5.27
2023-05-13T04:37:36.250Z,6.03
2023-05-13T04:40:08.102Z,5.77
2023-05-13T04:42:35.332Z,6.40
2023-05-13T04:45:02.791Z,5.80
2023-05-13T04:47:35.488Z,6.20
2023-05-13T04:50:02.597Z,6.60
2023-05-13T04:52:31.939Z,6.93
2023-05-13T04:54:58.937Z,7.43
2023-05-13T04:57:27.207Z,7.53
2023-05-13T04:59:54.193Z,7.20
2023-05-13T05:02:21.261Z,8.47
2023-05-13T05:04:49.541Z,8.23
2023-05-13T05:07:17.742Z,7.63
2023-05-13T05:09:44.715Z,8.20
2023-05-13T05:12:11.714Z,8.63
2023-05-13T05:14:41.200Z,7.60
2023-05-13T05:17:08.369Z,9.10
2023-05-13T05:19:35.475Z,8.83
2023-05-13T05:22:03.188Z,7.50
2023-05-13T05:24:30.310Z,7.50
2023-05-13T05:26:57.385Z,9.37
2023-05-13T05:29:24.625Z,10.13
2023-05-13T05:31:51.939Z,9.97
2023-05-13T05:34:19.622Z,8.93
2023-05-13T05:36:46.983Z,9.80
2023-05-13T05:39:15.745Z,7.80
2023-05-13T05:41:42.725Z,8.67
2023-05-13T05:44:09.672Z,6.87
2023-05-13T05:46:36.709Z,7.30
2023-05-13T05:49:04.182Z,7.80
2023-05-13T05:51:34.645Z,7.87
2023-05-13T05:54:03.750Z,9.40
2023-05-13T05:56:31.030Z,8.00
2023-05-13T05:58:57.959Z,7.60
2023-05-13T06:01:26.379Z,7.27
2023-05-13T06:03:54.829Z,7.67
2023-05-13T06:06:22.539Z,8.00
2023-05-13T06:08:49.507Z,9.70
2023-05-13T06:11:16.511Z,7.13
2023-05-13T06:13:44.135Z,7.27
2023-05-13T06:16:11.213Z,6.27
2023-05-13T06:18:38.658Z,6.23
2023-05-13T06:21:05.911Z,6.87
2023-05-13T06:23:33.017Z,5.20
2023-05-13T06:26:00.100Z,4.90
2023-05-13T06:28:27.676Z,4.70
2023-05-13T06:30:54.893Z,4.67
2023-05-13T06:33:22.407Z,5.20
2023-05-13T06:35:49.828Z,3.10
2023-05-13T06:38:18.894Z,2.90
2023-05-13T06:40:47.514Z,4.00
2023-05-13T06:43:18.487Z,4.00
2023-05-13T06:45:53.417Z,3.63
2023-05-13T06:48:21.087Z,3.50
2023-05-13T06:50:50.012Z,7.53
2023-05-13T06:53:17.038Z,2.90
2023-05-13T06:55:44.749Z,2.13
2023-05-13T06:58:12.494Z,3.53
2023-05-13T07:00:40.974Z,2.40
2023-05-13T07:03:08.635Z,2.90
2023-05-13T07:05:36.138Z,2.00
2023-05-13T07:08:08.760Z,1.90
2023-05-13T07:10:37.126Z,1.90
2023-05-13T07:13:04.912Z,2.60
2023-05-13T07:15:31.897Z,3.10
2023-05-13T07:17:58.837Z,2.90
2023-05-13T07:20:26.725Z,2.00
2023-05-13T07:22:53.899Z,2.63
2023-05-13T07:25:20.887Z,2.60
2023-05-13T07:27:48.627Z,3.40
2023-05-13T07:30:16.071Z,2.83
2023-05-13T07:32:43.369Z,1.70
2023-05-13T07:35:10.751Z,1.50
2023-05-13T07:37:37.713Z,2.50
2023-05-13T07:40:06.566Z,3.13
2023-05-13T07:42:33.667Z,2.20
2023-05-13T07:45:01.012Z,2.50
2023-05-13T07:47:31.875Z,2.67
2023-05-13T07:49:59.806Z,1.83
2023-05-13T07:52:26.911Z,2.00
2023-05-13T07:54:54.755Z,1.73
2023-05-13T07:57:21.783Z,1.60
2023-05-13T07:59:49.002Z,1.63
2023-05-13T08:02:15.979Z,1.83
2023-05-13T08:04:43.096Z,1.70
2023-05-13T08:07:11.661Z,1.60
2023-05-13T08:09:39.161Z,1.23
2023-05-13T08:12:06.486Z,1.50
2023-05-13T08:14:33.581Z,1.80
2023-05-13T08:17:01.132Z,1.83
2023-05-13T08:19:28.232Z,1.40
2023-05-13T08:21:55.312Z,1.93
2023-05-13T08:24:22.353Z,2.43
2023-05-13T08:26:49.267Z,1.90
2023-05-13T08:29:16.318Z,1.97
2023-05-13T08:31:43.357Z,1.73
2023-05-13T08:34:10.371Z,2.00
2023-05-13T08:36:37.281Z,1.60
2023-05-13T08:39:04.301Z,1.50
2023-05-13T08:51:33.722Z,1.83
2023-05-13T08:54:01.191Z,1.80
2023-05-13T08:56:29.914Z,1.70
2023-05-13T08:58:57.060Z,1.50
2023-05-13T09:01:26.508Z,1.87
2023-05-13T09:04:04.470Z,2.00
2023-05-13T09:06:31.515Z,1.83
2023-05-13T09:08:58.902Z,2.87
2023-05-13T09:11:26.431Z,1.90
2023-05-13T09:14:19.348Z,2.47
2023-05-13T09:16:47.844Z,1.50
2023-05-13T09:19:14.999Z,2.00
2023-05-13T09:21:44.014Z,2.53
2023-05-13T09:24:22.637Z,2.00
2023-05-13T09:26:51.575Z,2.70
2023-05-13T09:29:25.191Z,1.70
2023-05-13T09:31:54.468Z,2.30
2023-05-13T09:34:39.699Z,1.97
2023-05-13T09:37:08.243Z,1.90
2023-05-13T09:39:41.889Z,1.90
2023-05-13T09:42:19.764Z,2.07
2023-05-13T09:48:08.635Z,2.73
2023-05-13T09:50:35.599Z,2.20
2023-05-13T09:53:12.245Z,1.73
2023-05-13T09:55:45.076Z,1.57
2023-05-13T09:58:12.806Z,2.37
2023-05-13T10:00:41.948Z,2.20
2023-05-13T10:03:10.560Z,1.77
2023-05-13T10:05:39.919Z,2.37
2023-05-13T10:08:12.153Z,4.30
2023-05-13T10:10:40.048Z,1.70
2023-05-13T10:13:13.366Z,2.03
2023-05-13T10:15:52.526Z,1.60
2023-05-13T10:18:21.253Z,2.30
2023-05-13T10:20:53.223Z,2.80
2023-05-13T10:23:22.681Z,2.37
2023-05-13T10:25:54.942Z,1.80
2023-05-13T10:28:22.366Z,2.00
2023-05-13T10:30:51.700Z,2.00
2023-05-13T10:33:19.612Z,2.20
2023-05-13T10:36:03.765Z,2.23
2023-05-13T10:38:43.575Z,1.83
2023-05-13T10:42:04.927Z,3.33
2023-05-13T10:44:33.689Z,1.87
2023-05-13T10:47:02.585Z,2.27
2023-05-13T10:49:34.897Z,1.77
2023-05-13T10:52:07.251Z,2.00
2023-05-13T10:54:42.241Z,2.00
2023-05-13T10:57:10.030Z,2.10
2023-05-13T10:59:38.758Z,1.90
2023-05-13T11:02:25.146Z,2.57
2023-05-13T11:05:00.427Z,1.73
2023-05-13T11:07:30.295Z,2.20
2023-05-13T11:09:57.351Z,1.93
2023-05-13T11:12:24.366Z,2.37
2023-05-13T11:14:56.322Z,2.40
2023-05-13T11:17:23.305Z,2.40
2023-05-13T11:19:51.741Z,2.00
2023-05-13T11:22:22.751Z,2.10
2023-05-13T11:25:08.285Z,1.93
2023-05-13T11:27:40.388Z,1.80
2023-05-13T11:30:28.555Z,1.80
2023-05-13T11:32:59.765Z,2.23
2023-05-13T11:35:32.825Z,2.67
2023-05-13T11:38:03.433Z,2.97
2023-05-13T11:40:32.583Z,2.43
2023-05-13T11:43:01.294Z,2.10
2023-05-13T11:45:30.041Z,2.07
2023-05-13T11:47:57.694Z,1.80
2023-05-13T11:50:30.728Z,1.80
2023-05-13T11:53:02.125Z,2.87
2023-05-13T11:55:29.933Z,1.90
2023-05-13T11:57:57.866Z,2.10
2023-05-13T12:00:27.344Z,1.90
2023-05-13T12:02:55.273Z,1.90
2023-05-13T12:05:22.835Z,2.00
2023-05-13T12:07:50.834Z,2.17
2023-05-13T12:10:18.103Z,2.10
2023-05-13T12:12:46.235Z,2.07
2023-05-13T12:15:19.033Z,2.50
2023-05-13T12:17:46.843Z,2.10
2023-05-13T12:20:18.568Z,2.30
2023-05-13T12:22:45.673Z,2.37
2023-05-13T12:25:43.746Z,2.23
2023-05-13T12:28:24.841Z,3.17
2023-05-13T12:30:58.849Z,2.07
2023-05-13T12:33:49.224Z,2.10
2023-05-13T12:36:26.145Z,3.57
2023-05-13T12:39:01.842Z,2.17
2023-05-13T12:41:32.453Z,1.73
2023-05-13T12:44:03.900Z,1.63
2023-05-13T12:46:31.499Z,1.67
2023-05-13T12:49:00.375Z,2.13
2023-05-13T12:51:29.659Z,1.90
2023-05-13T12:53:57.918Z,2.00
2023-05-13T12:56:26.077Z,1.70
2023-05-13T12:58:54.192Z,2.00
2023-05-13T13:01:22.330Z,1.93
2023-05-13T13:03:49.730Z,2.00
2023-05-13T13:06:16.763Z,2.03
2023-05-13T13:08:43.879Z,2.07
2023-05-13T13:11:14.935Z,2.10
2023-05-13T13:13:42.566Z,2.03
2023-05-13T13:16:09.658Z,1.80
2023-05-13T13:18:36.814Z,2.00
2023-05-13T13:21:05.327Z,1.83
2023-05-13T13:23:32.297Z,2.00
2023-05-13T13:25:59.427Z,2.10
2023-05-13T13:28:27.442Z,2.07
2023-05-13T13:30:54.730Z,1.70
2023-05-13T13:33:22.345Z,1.73
2023-05-13T13:35:49.891Z,2.20
2023-05-13T13:38:16.889Z,2.10
2023-05-13T13:40:43.824Z,1.80
2023-05-13T13:43:10.758Z,2.00
2023-05-13T13:45:38.134Z,1.90
2023-05-13T13:48:05.518Z,1.80
2023-05-13T13:50:32.523Z,1.90
2023-05-13T13:52:59.472Z,2.10
2023-05-13T13:55:26.855Z,2.17
2023-05-13T13:57:53.799Z,1.90
2023-05-13T14:00:21.189Z,2.00
2023-05-13T14:02:48.868Z,1.83
2023-05-13T14:05:16.203Z,1.57
2023-05-13T14:07:43.215Z,2.17
2023-05-13T14:10:10.498Z,1.70
2023-05-13T14:12:38.397Z,2.30
2023-05-13T14:15:06.176Z,2.03
2023-05-13T14:17:33.952Z,1.80
2023-05-13T14:20:01.179Z,1.93
2023-05-13T14:22:30.977Z,2.00
2023-05-13T14:24:59.109Z,1.87
2023-05-13T14:27:26.200Z,2.10
2023-05-13T14:29:53.232Z,2.00
2023-05-13T14:32:20.706Z,1.57
2023-05-13T14:34:47.669Z,1.90
2023-05-13T14:37:14.701Z,2.17
2023-05-13T14:39:41.693Z,2.70
2023-05-13T14:42:08.680Z,1.70
2023-05-13T14:44:36.666Z,1.97
2023-05-13T14:47:03.886Z,1.90
2023-05-13T14:49:30.875Z,2.10
2023-05-13T14:51:57.916Z,2.10
2023-05-13T14:54:24.915Z,1.70
2023-05-13T14:56:52.765Z,1.90
2023-05-13T14:59:19.865Z,1.83
2023-05-13T15:01:46.858Z,2.00
2023-05-13T15:04:13.780Z,1.70
2023-05-13T15:06:40.771Z,1.87
2023-05-13T15:09:07.745Z,2.00
2023-05-13T15:11:34.686Z,1.83
2023-05-13T15:14:02.696Z,2.10
2023-05-13T15:16:29.920Z,1.80
2023-05-13T15:18:57.201Z,1.90
2023-05-13T15:21:24.333Z,2.00
2023-05-13T15:23:51.340Z,1.87
2023-05-13T15:26:18.510Z,1.63
2023-05-13T15:28:45.465Z,2.30
2023-05-13T15:31:12.398Z,2.20
2023-05-13T15:33:39.354Z,2.70
2023-05-13T15:36:06.984Z,2.13
2023-05-13T15:38:34.123Z,1.90
2023-05-13T15:41:03.467Z,1.90
2023-05-13T15:43:31.147Z,1.90
2023-05-13T15:45:59.090Z,1.80
2023-05-13T15:48:26.942Z,1.90
2023-05-13T15:50:54.734Z,2.07
2023-05-13T15:53:21.797Z,1.97
2023-05-13T15:55:48.834Z,2.50
2023-05-13T15:58:15.802Z,2.90
2023-05-13T16:00:43.293Z,2.23
2023-05-13T16:03:10.338Z,2.87
2023-05-13T16:05:38.646Z,2.93
2023-05-13T16:08:05.680Z,3.50
2023-05-13T16:10:33.908Z,3.93
2023-05-13T16:13:02.507Z,3.00
2023-05-13T16:15:29.548Z,2.80
2023-05-13T16:17:56.647Z,2.80
2023-05-13T16:20:24.081Z,2.67
2023-05-13T16:22:51.238Z,3.17
2023-05-13T16:25:18.345Z,3.47
2023-05-13T16:27:45.282Z,3.30
2023-05-13T16:30:12.772Z,3.93
2023-05-13T16:32:39.888Z,4.37
2023-05-13T16:35:07.631Z,3.33
2023-05-13T16:37:35.476Z,3.27
2023-05-13T16:40:02.974Z,3.00
2023-05-13T16:42:31.529Z,3.00
2023-05-13T16:44:58.512Z,2.90
2023-05-13T16:47:25.418Z,3.27
2023-05-13T16:49:52.386Z,3.53
2023-05-13T16:52:19.352Z,2.87
2023-05-13T16:54:47.281Z,2.57
2023-05-13T16:57:15.319Z,2.20
2023-05-13T16:59:43.073Z,2.47
2023-05-13T17:02:10.063Z,2.53
2023-05-13T17:04:37.057Z,2.17
2023-05-13T17:07:04.287Z,2.20
2023-05-13T17:09:31.273Z,1.93
2023-05-13T17:11:58.237Z,2.20
2023-05-13T17:14:25.700Z,2.63
2023-05-13T17:16:52.890Z,2.70
2023-05-13T17:19:20.025Z,2.50
2023-05-13T17:21:47.224Z,3.20
2023-05-13T17:24:14.221Z,2.40
2023-05-13T17:26:41.178Z,2.37
2023-05-13T17:29:08.087Z,2.40
2023-05-13T17:31:35.108Z,2.30
2023-05-13T17:34:02.180Z,2.30
2023-05-13T17:36:29.133Z,2.90
2023-05-13T17:38:56.022Z,3.20
2023-05-13T17:41:23.103Z,4.10
2023-05-13T17:43:50.039Z,4.40
2023-05-13T17:46:17.041Z,6.47
2023-05-13T17:48:43.997Z,11.23
2023-05-13T17:51:12.388Z,3.90
2023-05-13T17:53:39.347Z,4.60
2023-05-13T17:56:08.399Z,2.70
2023-05-13T17:58:35.400Z,4.47
2023-05-13T18:01:02.804Z,5.03
2023-05-13T18:03:29.716Z,4.47
2023-05-13T18:05:56.816Z,3.53
2023-05-13T18:08:23.866Z,3.03
2023-05-13T18:10:50.951Z,3.40
2023-05-13T18:13:17.869Z,3.03
2023-05-13T18:15:44.888Z,2.67
2023-05-13T18:18:12.064Z,3.33
2023-05-13T18:20:40.336Z,2.97
2023-05-13T18:23:07.363Z,3.13
2023-05-13T18:25:39.926Z,2.53
2023-05-13T18:28:12.479Z,3.33
2023-05-13T18:30:39.470Z,3.43
2023-05-13T18:33:06.440Z,3.57
2023-05-13T18:35:33.559Z,3.27
2023-05-13T18:38:00.478Z,5.13
2023-05-13T18:40:27.437Z,4.33
2023-05-13T18:42:54.354Z,3.90
2023-05-13T18:45:21.551Z,7.30
2023-05-13T18:47:48.660Z,6.40
2023-05-13T18:50:16.100Z,4.97
2023-05-13T18:52:43.100Z,6.90
2023-05-13T18:55:10.310Z,5.57
2023-05-13T18:57:37.319Z,5.43
2023-05-13T19:00:04.971Z,4.87
2023-05-13T19:02:35.140Z,8.70
2023-05-13T19:05:02.354Z,12.27
2023-05-13T19:07:30.858Z,11.00
2023-05-13T19:09:58.028Z,14.50
2023-05-13T19:12:25.110Z,15.80
2023-05-13T19:14:51.998Z,16.63
2023-05-13T19:17:19.071Z,14.57
2023-05-13T19:19:46.050Z,12.27
2023-05-13T19:22:12.966Z,10.27
2023-05-13T19:24:39.978Z,8.50
2023-05-13T19:27:08.582Z,6.73
2023-05-13T19:29:35.718Z,6.80
2023-05-13T19:32:02.648Z,5.87
2023-05-13T19:34:29.774Z,6.03
2023-05-13T19:36:56.680Z,4.60
2023-05-13T19:39:23.646Z,5.40
2023-05-13T19:41:50.669Z,6.07
2023-05-13T19:44:17.618Z,5.50
2023-05-13T19:46:44.655Z,5.37
2023-05-13T19:49:11.640Z,5.70
2023-05-13T19:51:38.536Z,4.57
2023-05-13T19:54:07.048Z,5.70
2023-05-13T19:56:34.066Z,4.40
2023-05-13T19:59:01.009Z,3.27
2023-05-13T20:01:28.080Z,3.47
2023-05-13T20:03:55.512Z,3.23
2023-05-13T20:06:22.589Z,4.10
2023-05-13T20:08:49.529Z,4.70
2023-05-13T20:11:16.455Z,4.03
2023-05-13T20:13:43.614Z,4.30
2023-05-13T20:16:10.542Z,3.10
2023-05-13T20:18:38.330Z,3.47
2023-05-13T20:21:06.147Z,3.80
2023-05-13T20:23:33.090Z,4.07
2023-05-13T20:26:00.128Z,4.00
2023-05-13T20:28:27.056Z,3.37
2023-05-13T20:30:54.184Z,3.80
2023-05-13T20:33:21.175Z,3.83
2023-05-13T20:35:48.101Z,4.03
2023-05-13T20:38:14.992Z,3.73
2023-05-13T20:40:41.993Z,3.77
2023-05-13T20:43:09.043Z,3.83
2023-05-13T20:45:39.315Z,3.50
2023-05-13T20:48:07.946Z,4.07
2023-05-13T20:50:36.216Z,3.80
2023-05-13T20:53:03.216Z,3.27
2023-05-13T20:55:30.120Z,3.47
2023-05-13T20:57:57.097Z,3.93
2023-05-13T21:00:24.547Z,3.10
2023-05-13T21:02:53.115Z,3.00
2023-05-13T21:05:20.576Z,3.27
2023-05-13T21:07:47.604Z,3.20
2023-05-13T21:10:14.622Z,3.33
2023-05-13T21:12:43.827Z,2.87
2023-05-13T21:15:12.486Z,3.00
2023-05-13T21:17:40.817Z,3.20
2023-05-13T21:20:08.615Z,2.90
2023-05-13T21:22:35.597Z,3.53
2023-05-13T21:25:02.509Z,3.93
2023-05-13T21:27:30.980Z,3.83
2023-05-13T21:29:57.939Z,4.33
2023-05-13T21:32:24.868Z,3.97
2023-05-13T21:34:51.836Z,4.00
2023-05-13T21:37:18.714Z,3.70
2023-05-13T21:39:45.681Z,4.00
2023-05-13T21:42:12.662Z,4.30
2023-05-13T21:44:40.995Z,3.40
2023-05-13T21:47:08.086Z,4.17
2023-05-13T21:49:35.026Z,3.87
2023-05-13T21:52:01.990Z,4.40
2023-05-13T21:54:29.016Z,3.90
2023-05-13T21:56:55.887Z,3.60
2023-05-13T21:59:22.819Z,4.50
2023-05-13T22:01:49.761Z,8.93
2023-05-13T22:04:16.653Z,4.83
2023-05-13T22:06:43.652Z,3.90
2023-05-13T22:09:10.820Z,3.70
2023-05-13T22:11:37.696Z,4.13
2023-05-13T22:14:05.143Z,4.03
2023-05-13T22:16:32.212Z,4.07
2023-05-13T22:19:00.157Z,4.10
2023-05-13T22:21:27.265Z,3.73
2023-05-13T22:23:54.335Z,4.80
2023-05-13T22:26:21.915Z,4.20
2023-05-13T22:28:48.921Z,3.83
2023-05-13T22:31:16.840Z,4.20
2023-05-13T22:33:46.995Z,3.97
2023-05-13T22:36:14.206Z,4.03
2023-05-13T22:38:42.250Z,3.67
2023-05-13T22:41:09.176Z,5.20
2023-05-13T22:43:36.321Z,5.77
2023-05-13T22:46:03.586Z,4.73
2023-05-13T22:48:30.629Z,4.30
2023-05-13T22:50:58.404Z,4.00
2023-05-13T22:53:25.605Z,4.07
2023-05-13T22:55:52.816Z,4.00
2023-05-13T22:58:21.163Z,3.50
2023-05-13T23:00:49.365Z,4.03
2023-05-13T23:03:16.505Z,3.53
2023-05-13T23:05:43.529Z,3.97
2023-05-13T23:08:10.608Z,3.93
2023-05-13T23:10:37.552Z,3.87
2023-05-13T23:13:05.841Z,3.70
2023-05-13T23:15:33.407Z,3.53
2023-05-13T23:18:00.373Z,3.60
2023-05-13T23:20:27.424Z,3.67
2023-05-13T23:22:55.213Z,3.87
2023-05-13T23:25:22.191Z,3.40
2023-05-13T23:27:50.576Z,3.70
2023-05-13T23:30:17.563Z,3.87
2023-05-13T23:32:44.667Z,3.93
2023-05-13T23:35:12.311Z,3.40
2023-05-13T23:37:39.291Z,3.63
2023-05-13T23:40:07.057Z,3.60
2023-05-13T23:42:34.028Z,3.60
2023-05-13T23:45:01.063Z,7.20
2023-05-13T23:47:34.001Z,4.40
2023-05-13T23:50:01.095Z,3.80
2023-05-13T23:52:28.324Z,3.87
2023-05-13T23:54:55.348Z,3.27
2023-05-13T23:57:22.323Z,3.07
2023-05-13T23:59:49.252Z,3.33
